sensor_id;sensor_type;location;lat;lon;timestamp;P1;durP1;ratioP1;P2;durP2;ratioP2
14994;SDS011;7593;49.006;8.372;2023-04-24T00:00:54;1.15;;;0.90;;
14994;SDS011;7593;49.006;8.372;2023-04-24T00:03:22;1.67;;;1.10;;
14994;SDS011;7593;49.006;8.372;2023-04-24T00:05:50;1.58;;;1.25;;
14994;SDS011;7593;49.006;8.372;2023-04-24T00:08:17;1.73;;;1.38;;
14994;SDS011;7593;49.006;8.372;2023-04-24T00:10:44;3.60;;;1.40;;
14994;SDS011;7593;49.006;8.372;2023-04-24T00:13:11;1.13;;;1.00;;
14994;SDS011;7593;49.006;8.372;2023-04-24T00:15:37;2.10;;;1.13;;
14994;SDS011;7593;49.006;8.372;2023-04-24T00:18:04;1.20;;;1.10;;
14994;SDS011;7593;49.006;8.372;2023-04-24T00:20:31;1.85;;;1.05;;
14994;SDS011;7593;49.006;8.372;2023-04-24T00:22:59;1.48;;;1.10;;
14994;SDS011;7593;49.006;8.372;2023-04-24T00:25:26;2.47;;;1.05;;
14994;SDS011;7593;49.006;8.372;2023-04-24T00:27:53;4.38;;;1.40;;
14994;SDS011;7593;49.006;8.372;2023-04-24T00:30:19;2.55;;;1.20;;
14994;SDS011;7593;49.006;8.372;2023-04-24T00:32:46;1.20;;;1.08;;
14994;SDS011;7593;49.006;8.372;2023-04-24T00:35:13;1.65;;;1.05;;
14994;SDS011;7593;49.006;8.372;2023-04-24T00:37:40;2.20;;;1.30;;
14994;SDS011;7593;49.006;8.372;2023-04-24T00:40:11;1.52;;;0.95;;
14994;SDS011;7593;49.006;8.372;2023-04-24T00:42:38;2.00;;;1.10;;
14994;SDS011;7593;49.006;8.372;2023-04-24T00:45:06;1.98;;;1.00;;
14994;SDS011;7593;49.006;8.372;2023-04-24T00:47:33;1.42;;;1.20;;
14994;SDS011;7593;49.006;8.372;2023-04-24T00:50:01;2.35;;;1.10;;
14994;SDS011;7593;49.006;8.372;2023-04-24T00:52:28;2.47;;;1.20;;
14994;SDS011;7593;49.006;8.372;2023-04-24T00:54:56;2.63;;;1.20;;
14994;SDS011;7593;49.006;8.372;2023-04-24T00:57:24;2.35;;;1.20;;
14994;SDS011;7593;49.006;8.372;2023-04-24T00:59:51;2.95;;;1.10;;
14994;SDS011;7593;49.006;8.372;2023-04-24T01:02:18;2.83;;;1.23;;
14994;SDS011;7593;49.006;8.372;2023-04-24T01:04:47;2.17;;;1.20;;
14994;SDS011;7593;49.006;8.372;2023-04-24T01:07:16;3.35;;;1.30;;
14994;SDS011;7593;49.006;8.372;2023-04-24T01:09:43;2.45;;;1.23;;
14994;SDS011;7593;49.006;8.372;2023-04-24T01:12:14;1.42;;;1.08;;
14994;SDS011;7593;49.006;8.372;2023-04-24T01:14:42;2.10;;;1.35;;
14994;SDS011;7593;49.006;8.372;2023-04-24T01:17:09;1.42;;;1.20;;
14994;SDS011;7593;49.006;8.372;2023-04-24T01:19:36;2.17;;;1.27;;
14994;SDS011;7593;49.006;8.372;2023-04-24T01:22:08;1.63;;;1.20;;
14994;SDS011;7593;49.006;8.372;2023-04-24T01:24:36;1.45;;;1.00;;
14994;SDS011;7593;49.006;8.372;2023-04-24T01:27:03;3.53;;;1.30;;
14994;SDS011;7593;49.006;8.372;2023-04-24T01:29:30;1.95;;;1.20;;
14994;SDS011;7593;49.006;8.372;2023-04-24T01:31:57;1.55;;;1.30;;
14994;SDS011;7593;49.006;8.372;2023-04-24T01:34:24;2.58;;;1.10;;
14994;SDS011;7593;49.006;8.372;2023-04-24T01:36:51;3.53;;;1.20;;
14994;SDS011;7593;49.006;8.372;2023-04-24T01:39:20;1.50;;;1.13;;
14994;SDS011;7593;49.006;8.372;2023-04-24T01:41:48;3.00;;;1.25;;
14994;SDS011;7593;49.006;8.372;2023-04-24T01:44:15;3.33;;;1.40;;
14994;SDS011;7593;49.006;8.372;2023-04-24T01:46:43;2.08;;;1.20;;
14994;SDS011;7593;49.006;8.372;2023-04-24T01:49:10;1.80;;;1.25;;
14994;SDS011;7593;49.006;8.372;2023-04-24T01:51:37;2.50;;;1.27;;
14994;SDS011;7593;49.006;8.372;2023-04-24T01:54:04;2.97;;;1.20;;
14994;SDS011;7593;49.006;8.372;2023-04-24T01:56:32;3.13;;;1.27;;
14994;SDS011;7593;49.006;8.372;2023-04-24T01:59:00;1.42;;;1.20;;
14994;SDS011;7593;49.006;8.372;2023-04-24T02:01:32;1.67;;;1.50;;
14994;SDS011;7593;49.006;8.372;2023-04-24T02:04:00;3.47;;;1.35;;
14994;SDS011;7593;49.006;8.372;2023-04-24T02:06:26;2.30;;;1.20;;
14994;SDS011;7593;49.006;8.372;2023-04-24T02:08:53;3.17;;;1.42;;
14994;SDS011;7593;49.006;8.372;2023-04-24T02:11:20;2.05;;;1.58;;
14994;SDS011;7593;49.006;8.372;2023-04-24T02:13:48;2.35;;;1.30;;
14994;SDS011;7593;49.006;8.372;2023-04-24T02:16:16;1.50;;;1.40;;
14994;SDS011;7593;49.006;8.372;2023-04-24T02:18:43;3.08;;;1.40;;
14994;SDS011;7593;49.006;8.372;2023-04-24T02:21:10;1.85;;;1.20;;
14994;SDS011;7593;49.006;8.372;2023-04-24T02:23:37;1.75;;;1.20;;
14994;SDS011;7593;49.006;8.372;2023-04-24T02:26:04;3.00;;;1.58;;
14994;SDS011;7593;49.006;8.372;2023-04-24T02:28:31;1.98;;;1.25;;
14994;SDS011;7593;49.006;8.372;2023-04-24T02:30:59;2.25;;;1.33;;
14994;SDS011;7593;49.006;8.372;2023-04-24T02:33:26;2.60;;;1.38;;
14994;SDS011;7593;49.006;8.372;2023-04-24T02:35:53;2.38;;;1.60;;
14994;SDS011;7593;49.006;8.372;2023-04-24T02:38:19;2.28;;;1.30;;
14994;SDS011;7593;49.006;8.372;2023-04-24T02:40:46;2.20;;;1.40;;
14994;SDS011;7593;49.006;8.372;2023-04-24T02:43:13;2.97;;;1.45;;
14994;SDS011;7593;49.006;8.372;2023-04-24T02:45:40;3.13;;;1.48;;
14994;SDS011;7593;49.006;8.372;2023-04-24T02:48:08;2.97;;;1.52;;
14994;SDS011;7593;49.006;8.372;2023-04-24T02:50:35;2.13;;;1.20;;
14994;SDS011;7593;49.006;8.372;2023-04-24T02:53:01;1.33;;;1.10;;
14994;SDS011;7593;49.006;8.372;2023-04-24T02:55:28;2.35;;;1.38;;
14994;SDS011;7593;49.006;8.372;2023-04-24T02:57:55;1.40;;;1.02;;
14994;SDS011;7593;49.006;8.372;2023-04-24T03:00:22;2.22;;;1.30;;
14994;SDS011;7593;49.006;8.372;2023-04-24T03:02:50;1.98;;;1.27;;
14994;SDS011;7593;49.006;8.372;2023-04-24T03:05:18;3.05;;;1.50;;
14994;SDS011;7593;49.006;8.372;2023-04-24T03:07:45;1.50;;;1.30;;
14994;SDS011;7593;49.006;8.372;2023-04-24T03:10:11;3.20;;;1.40;;
14994;SDS011;7593;49.006;8.372;2023-04-24T03:12:38;2.30;;;1.50;;
14994;SDS011;7593;49.006;8.372;2023-04-24T03:15:06;1.77;;;1.58;;
14994;SDS011;7593;49.006;8.372;2023-04-24T03:17:33;1.75;;;1.42;;
14994;SDS011;7593;49.006;8.372;2023-04-24T03:20:00;1.92;;;1.60;;
14994;SDS011;7593;49.006;8.372;2023-04-24T03:22:28;3.85;;;1.58;;
14994;SDS011;7593;49.006;8.372;2023-04-24T03:24:57;1.63;;;1.52;;
14994;SDS011;7593;49.006;8.372;2023-04-24T03:27:24;1.65;;;1.50;;
14994;SDS011;7593;49.006;8.372;2023-04-24T03:29:51;3.38;;;1.90;;
14994;SDS011;7593;49.006;8.372;2023-04-24T03:32:20;1.92;;;1.70;;
14994;SDS011;7593;49.006;8.372;2023-04-24T03:34:47;4.13;;;2.10;;
14994;SDS011;7593;49.006;8.372;2023-04-24T03:37:13;4.22;;;2.10;;
14994;SDS011;7593;49.006;8.372;2023-04-24T03:39:42;3.60;;;2.28;;
14994;SDS011;7593;49.006;8.372;2023-04-24T03:42:08;3.97;;;2.20;;
14994;SDS011;7593;49.006;8.372;2023-04-24T03:44:35;2.80;;;2.20;;
14994;SDS011;7593;49.006;8.372;2023-04-24T03:47:02;3.50;;;2.10;;
14994;SDS011;7593;49.006;8.372;2023-04-24T03:49:29;2.08;;;1.88;;
14994;SDS011;7593;49.006;8.372;2023-04-24T03:51:56;2.40;;;2.15;;
14994;SDS011;7593;49.006;8.372;2023-04-24T03:54:22;2.72;;;2.10;;
14994;SDS011;7593;49.006;8.372;2023-04-24T03:56:51;2.20;;;1.95;;
14994;SDS011;7593;49.006;8.372;2023-04-24T03:59:18;2.85;;;2.13;;
14994;SDS011;7593;49.006;8.372;2023-04-24T04:01:45;2.67;;;2.30;;
14994;SDS011;7593;49.006;8.372;2023-04-24T04:04:11;2.92;;;2.08;;
14994;SDS011;7593;49.006;8.372;2023-04-24T04:06:38;2.28;;;2.08;;
14994;SDS011;7593;49.006;8.372;2023-04-24T04:09:05;2.33;;;1.92;;
14994;SDS011;7593;49.006;8.372;2023-04-24T04:11:32;3.25;;;2.00;;
14994;SDS011;7593;49.006;8.372;2023-04-24T04:14:01;2.58;;;1.88;;
14994;SDS011;7593;49.006;8.372;2023-04-24T04:16:28;4.15;;;2.35;;
14994;SDS011;7593;49.006;8.372;2023-04-24T04:18:55;2.45;;;2.05;;
14994;SDS011;7593;49.006;8.372;2023-04-24T04:21:22;2.42;;;2.20;;
14994;SDS011;7593;49.006;8.372;2023-04-24T04:23:49;3.17;;;2.25;;
14994;SDS011;7593;49.006;8.372;2023-04-24T04:26:15;2.63;;;2.03;;
14994;SDS011;7593;49.006;8.372;2023-04-24T04:28:44;2.78;;;2.05;;
14994;SDS011;7593;49.006;8.372;2023-04-24T04:31:12;2.58;;;2.38;;
14994;SDS011;7593;49.006;8.372;2023-04-24T04:33:38;2.55;;;2.33;;
14994;SDS011;7593;49.006;8.372;2023-04-24T04:36:05;3.50;;;2.50;;
14994;SDS011;7593;49.006;8.372;2023-04-24T04:38:33;3.80;;;2.20;;
14994;SDS011;7593;49.006;8.372;2023-04-24T04:41:00;2.83;;;2.30;;
14994;SDS011;7593;49.006;8.372;2023-04-24T04:43:27;2.47;;;2.20;;
14994;SDS011;7593;49.006;8.372;2023-04-24T04:45:54;2.53;;;2.30;;
14994;SDS011;7593;49.006;8.372;2023-04-24T04:48:22;2.58;;;2.20;;
14994;SDS011;7593;49.006;8.372;2023-04-24T04:50:48;4.32;;;2.38;;
14994;SDS011;7593;49.006;8.372;2023-04-24T04:53:16;2.45;;;2.25;;
14994;SDS011;7593;49.006;8.372;2023-04-24T04:55:42;3.83;;;2.15;;
14994;SDS011;7593;49.006;8.372;2023-04-24T04:58:09;2.75;;;2.17;;
14994;SDS011;7593;49.006;8.372;2023-04-24T05:00:36;3.30;;;2.40;;
14994;SDS011;7593;49.006;8.372;2023-04-24T05:03:04;2.45;;;2.22;;
14994;SDS011;7593;49.006;8.372;2023-04-24T05:05:32;3.33;;;2.25;;
14994;SDS011;7593;49.006;8.372;2023-04-24T05:07:59;3.58;;;2.33;;
14994;SDS011;7593;49.006;8.372;2023-04-24T05:10:26;2.72;;;2.33;;
14994;SDS011;7593;49.006;8.372;2023-04-24T05:12:52;2.63;;;2.40;;
14994;SDS011;7593;49.006;8.372;2023-04-24T05:15:19;2.67;;;2.47;;
14994;SDS011;7593;49.006;8.372;2023-04-24T05:17:46;2.80;;;2.38;;
14994;SDS011;7593;49.006;8.372;2023-04-24T05:20:12;2.97;;;2.38;;
14994;SDS011;7593;49.006;8.372;2023-04-24T05:22:41;2.67;;;2.30;;
14994;SDS011;7593;49.006;8.372;2023-04-24T05:25:08;3.30;;;2.30;;
14994;SDS011;7593;49.006;8.372;2023-04-24T05:27:35;3.08;;;2.47;;
14994;SDS011;7593;49.006;8.372;2023-04-24T05:30:02;2.78;;;2.50;;
14994;SDS011;7593;49.006;8.372;2023-04-24T05:32:29;2.80;;;2.40;;
14994;SDS011;7593;49.006;8.372;2023-04-24T05:34:56;2.50;;;2.22;;
14994;SDS011;7593;49.006;8.372;2023-04-24T05:37:23;2.60;;;2.40;;
14994;SDS011;7593;49.006;8.372;2023-04-24T05:39:51;3.60;;;2.20;;
14994;SDS011;7593;49.006;8.372;2023-04-24T05:42:18;2.65;;;2.28;;
14994;SDS011;7593;49.006;8.372;2023-04-24T05:44:44;3.08;;;2.10;;
14994;SDS011;7593;49.006;8.372;2023-04-24T05:47:11;2.38;;;2.10;;
14994;SDS011;7593;49.006;8.372;2023-04-24T05:49:38;2.60;;;2.40;;
14994;SDS011;7593;49.006;8.372;2023-04-24T05:52:05;2.78;;;2.42;;
14994;SDS011;7593;49.006;8.372;2023-04-24T05:54:33;2.88;;;2.10;;
14994;SDS011;7593;49.006;8.372;2023-04-24T05:57:01;3.58;;;2.38;;
14994;SDS011;7593;49.006;8.372;2023-04-24T05:59:32;2.17;;;1.95;;
14994;SDS011;7593;49.006;8.372;2023-04-24T06:01:59;2.85;;;2.20;;
14994;SDS011;7593;49.006;8.372;2023-04-24T06:04:26;2.10;;;1.90;;
14994;SDS011;7593;49.006;8.372;2023-04-24T06:06:52;4.80;;;2.20;;
14994;SDS011;7593;49.006;8.372;2023-04-24T06:09:21;3.72;;;1.92;;
14994;SDS011;7593;49.006;8.372;2023-04-24T06:11:48;3.75;;;2.10;;
14994;SDS011;7593;49.006;8.372;2023-04-24T06:14:19;3.30;;;2.10;;
14994;SDS011;7593;49.006;8.372;2023-04-24T06:16:46;3.13;;;1.83;;
14994;SDS011;7593;49.006;8.372;2023-04-24T06:19:12;2.22;;;2.03;;
14994;SDS011;7593;49.006;8.372;2023-04-24T06:21:39;2.00;;;1.70;;
14994;SDS011;7593;49.006;8.372;2023-04-24T06:24:06;2.70;;;2.20;;
14994;SDS011;7593;49.006;8.372;2023-04-24T06:26:33;3.10;;;2.00;;
14994;SDS011;7593;49.006;8.372;2023-04-24T06:29:00;2.20;;;2.00;;
14994;SDS011;7593;49.006;8.372;2023-04-24T06:31:28;2.45;;;2.10;;
14994;SDS011;7593;49.006;8.372;2023-04-24T06:33:55;3.15;;;2.60;;
14994;SDS011;7593;49.006;8.372;2023-04-24T06:36:21;3.63;;;2.53;;
14994;SDS011;7593;49.006;8.372;2023-04-24T06:38:49;3.63;;;2.22;;
14994;SDS011;7593;49.006;8.372;2023-04-24T06:41:16;2.80;;;2.17;;
14994;SDS011;7593;49.006;8.372;2023-04-24T06:43:42;3.22;;;2.22;;
14994;SDS011;7593;49.006;8.372;2023-04-24T06:46:09;2.97;;;2.10;;
14994;SDS011;7593;49.006;8.372;2023-04-24T06:48:38;2.63;;;2.42;;
14994;SDS011;7593;49.006;8.372;2023-04-24T06:51:05;2.20;;;1.95;;
14994;SDS011;7593;49.006;8.372;2023-04-24T06:53:32;2.50;;;2.00;;
14994;SDS011;7593;49.006;8.372;2023-04-24T06:55:59;3.40;;;2.10;;
14994;SDS011;7593;49.006;8.372;2023-04-24T06:58:26;4.82;;;2.10;;
14994;SDS011;7593;49.006;8.372;2023-04-24T07:00:53;2.53;;;2.17;;
14994;SDS011;7593;49.006;8.372;2023-04-24T07:03:19;4.45;;;2.08;;
14994;SDS011;7593;49.006;8.372;2023-04-24T07:05:47;2.47;;;1.90;;
14994;SDS011;7593;49.006;8.372;2023-04-24T07:08:14;4.43;;;2.10;;
14994;SDS011;7593;49.006;8.372;2023-04-24T07:10:42;3.38;;;2.47;;
14994;SDS011;7593;49.006;8.372;2023-04-24T07:13:09;3.25;;;2.17;;
14994;SDS011;7593;49.006;8.372;2023-04-24T07:15:36;5.00;;;2.17;;
14994;SDS011;7593;49.006;8.372;2023-04-24T07:18:04;4.22;;;1.83;;
14994;SDS011;7593;49.006;8.372;2023-04-24T07:20:31;2.95;;;1.92;;
14994;SDS011;7593;49.006;8.372;2023-04-24T07:23:00;5.38;;;1.90;;
14994;SDS011;7593;49.006;8.372;2023-04-24T07:25:27;4.60;;;2.10;;
14994;SDS011;7593;49.006;8.372;2023-04-24T07:27:54;3.78;;;1.98;;
14994;SDS011;7593;49.006;8.372;2023-04-24T07:30:20;2.65;;;1.80;;
14994;SDS011;7593;49.006;8.372;2023-04-24T07:32:47;3.75;;;1.85;;
14994;SDS011;7593;49.006;8.372;2023-04-24T07:35:14;2.72;;;2.00;;
14994;SDS011;7593;49.006;8.372;2023-04-24T07:37:41;2.80;;;1.67;;
14994;SDS011;7593;49.006;8.372;2023-04-24T07:40:12;2.88;;;1.92;;
14994;SDS011;7593;49.006;8.372;2023-04-24T07:42:39;6.45;;;1.80;;
14994;SDS011;7593;49.006;8.372;2023-04-24T07:45:06;1.70;;;1.60;;
14994;SDS011;7593;49.006;8.372;2023-04-24T07:47:33;3.28;;;2.20;;
14994;SDS011;7593;49.006;8.372;2023-04-24T07:50:01;2.83;;;1.80;;
14994;SDS011;7593;49.006;8.372;2023-04-24T07:52:28;2.55;;;1.70;;
14994;SDS011;7593;49.006;8.372;2023-04-24T07:54:55;2.17;;;1.83;;
14994;SDS011;7593;49.006;8.372;2023-04-24T07:57:26;3.45;;;1.67;;
14994;SDS011;7593;49.006;8.372;2023-04-24T07:59:53;1.77;;;1.52;;
14994;SDS011;7593;49.006;8.372;2023-04-24T08:02:20;5.38;;;1.60;;
14994;SDS011;7593;49.006;8.372;2023-04-24T08:04:51;2.67;;;1.40;;
14994;SDS011;7593;49.006;8.372;2023-04-24T08:07:18;3.25;;;1.98;;
14994;SDS011;7593;49.006;8.372;2023-04-24T08:09:45;2.00;;;1.80;;
14994;SDS011;7593;49.006;8.372;2023-04-24T08:12:12;4.68;;;1.88;;
14994;SDS011;7593;49.006;8.372;2023-04-24T08:14:40;3.35;;;1.70;;
14994;SDS011;7593;49.006;8.372;2023-04-24T08:17:07;3.05;;;1.83;;
14994;SDS011;7593;49.006;8.372;2023-04-24T08:19:34;4.32;;;1.63;;
14994;SDS011;7593;49.006;8.372;2023-04-24T08:22:01;2.60;;;1.60;;
14994;SDS011;7593;49.006;8.372;2023-04-24T08:24:29;3.20;;;1.52;;
14994;SDS011;7593;49.006;8.372;2023-04-24T08:26:56;2.45;;;1.40;;
14994;SDS011;7593;49.006;8.372;2023-04-24T08:29:23;2.50;;;1.30;;
14994;SDS011;7593;49.006;8.372;2023-04-24T08:31:51;4.63;;;1.88;;
14994;SDS011;7593;49.006;8.372;2023-04-24T08:34:20;6.65;;;2.58;;
14994;SDS011;7593;49.006;8.372;2023-04-24T08:36:46;3.13;;;2.65;;
14994;SDS011;7593;49.006;8.372;2023-04-24T08:39:13;2.42;;;1.50;;
14994;SDS011;7593;49.006;8.372;2023-04-24T08:41:41;2.13;;;1.30;;
14994;SDS011;7593;49.006;8.372;2023-04-24T08:44:10;1.92;;;1.50;;
14994;SDS011;7593;49.006;8.372;2023-04-24T08:46:37;2.00;;;1.60;;
14994;SDS011;7593;49.006;8.372;2023-04-24T08:49:06;2.25;;;1.58;;
14994;SDS011;7593;49.006;8.372;2023-04-24T08:51:33;3.13;;;1.83;;
14994;SDS011;7593;49.006;8.372;2023-04-24T08:54:02;1.90;;;1.65;;
14994;SDS011;7593;49.006;8.372;2023-04-24T08:56:30;1.58;;;1.25;;
14994;SDS011;7593;49.006;8.372;2023-04-24T08:58:59;2.30;;;1.70;;
14994;SDS011;7593;49.006;8.372;2023-04-24T09:01:26;4.55;;;1.60;;
14994;SDS011;7593;49.006;8.372;2023-04-24T09:03:54;2.35;;;1.63;;
14994;SDS011;7593;49.006;8.372;2023-04-24T09:06:24;2.67;;;1.80;;
14994;SDS011;7593;49.006;8.372;2023-04-24T09:08:52;3.88;;;1.63;;
14994;SDS011;7593;49.006;8.372;2023-04-24T09:11:21;3.83;;;1.58;;
14994;SDS011;7593;49.006;8.372;2023-04-24T09:13:50;3.63;;;1.65;;
14994;SDS011;7593;49.006;8.372;2023-04-24T09:16:17;3.78;;;1.60;;
14994;SDS011;7593;49.006;8.372;2023-04-24T09:18:45;2.33;;;1.70;;
14994;SDS011;7593;49.006;8.372;2023-04-24T09:21:12;2.70;;;1.75;;
14994;SDS011;7593;49.006;8.372;2023-04-24T09:23:41;3.55;;;1.92;;
14994;SDS011;7593;49.006;8.372;2023-04-24T09:26:08;2.05;;;1.80;;
14994;SDS011;7593;49.006;8.372;2023-04-24T09:28:36;3.90;;;2.10;;
14994;SDS011;7593;49.006;8.372;2023-04-24T09:31:05;2.65;;;2.08;;
14994;SDS011;7593;49.006;8.372;2023-04-24T09:33:33;2.67;;;2.35;;
14994;SDS011;7593;49.006;8.372;2023-04-24T09:36:00;3.30;;;2.88;;
14994;SDS011;7593;49.006;8.372;2023-04-24T09:38:30;4.20;;;2.80;;
14994;SDS011;7593;49.006;8.372;2023-04-24T09:41:00;2.88;;;2.42;;
14994;SDS011;7593;49.006;8.372;2023-04-24T09:43:28;4.65;;;2.38;;
14994;SDS011;7593;49.006;8.372;2023-04-24T09:45:56;3.90;;;2.67;;
14994;SDS011;7593;49.006;8.372;2023-04-24T09:48:30;4.63;;;2.63;;
14994;SDS011;7593;49.006;8.372;2023-04-24T09:50:57;4.53;;;2.80;;
14994;SDS011;7593;49.006;8.372;2023-04-24T09:53:24;3.42;;;2.60;;
14994;SDS011;7593;49.006;8.372;2023-04-24T09:55:51;4.80;;;2.40;;
14994;SDS011;7593;49.006;8.372;2023-04-24T09:58:20;2.63;;;2.15;;
14994;SDS011;7593;49.006;8.372;2023-04-24T10:00:53;2.20;;;2.00;;
14994;SDS011;7593;49.006;8.372;2023-04-24T10:03:23;2.92;;;1.92;;
14994;SDS011;7593;49.006;8.372;2023-04-24T10:05:51;3.05;;;1.95;;
14994;SDS011;7593;49.006;8.372;2023-04-24T10:08:18;2.47;;;2.00;;
14994;SDS011;7593;49.006;8.372;2023-04-24T10:10:45;2.53;;;2.33;;
14994;SDS011;7593;49.006;8.372;2023-04-24T10:13:13;2.92;;;2.10;;
14994;SDS011;7593;49.006;8.372;2023-04-24T10:15:41;3.15;;;1.50;;
14994;SDS011;7593;49.006;8.372;2023-04-24T10:18:09;3.58;;;1.70;;
14994;SDS011;7593;49.006;8.372;2023-04-24T10:20:37;2.67;;;1.70;;
14994;SDS011;7593;49.006;8.372;2023-04-24T10:23:05;2.35;;;2.15;;
14994;SDS011;7593;49.006;8.372;2023-04-24T10:25:33;2.80;;;2.00;;
14994;SDS011;7593;49.006;8.372;2023-04-24T10:28:01;3.95;;;2.97;;
14994;SDS011;7593;49.006;8.372;2023-04-24T10:30:29;5.35;;;3.03;;
14994;SDS011;7593;49.006;8.372;2023-04-24T10:33:01;4.07;;;3.50;;
14994;SDS011;7593;49.006;8.372;2023-04-24T10:35:31;2.55;;;1.98;;
14994;SDS011;7593;49.006;8.372;2023-04-24T10:38:01;3.63;;;2.88;;
14994;SDS011;7593;49.006;8.372;2023-04-24T10:40:32;3.55;;;3.03;;
14994;SDS011;7593;49.006;8.372;2023-04-24T10:43:01;4.32;;;2.28;;
14994;SDS011;7593;49.006;8.372;2023-04-24T10:45:31;3.13;;;2.20;;
14994;SDS011;7593;49.006;8.372;2023-04-24T10:47:58;2.58;;;2.38;;
14994;SDS011;7593;49.006;8.372;2023-04-24T10:50:28;3.55;;;2.42;;
14994;SDS011;7593;49.006;8.372;2023-04-24T10:53:13;2.42;;;2.20;;
14994;SDS011;7593;49.006;8.372;2023-04-24T10:55:45;3.15;;;2.40;;
14994;SDS011;7593;49.006;8.372;2023-04-24T10:58:13;2.53;;;2.30;;
14994;SDS011;7593;49.006;8.372;2023-04-24T11:00:41;3.17;;;2.42;;
14994;SDS011;7593;49.006;8.372;2023-04-24T11:03:22;3.05;;;2.50;;
14994;SDS011;7593;49.006;8.372;2023-04-24T11:05:59;2.90;;;2.42;;
14994;SDS011;7593;49.006;8.372;2023-04-24T11:08:28;6.05;;;2.75;;
14994;SDS011;7593;49.006;8.372;2023-04-24T11:11:01;4.55;;;2.58;;
14994;SDS011;7593;49.006;8.372;2023-04-24T11:16:29;6.25;;;3.45;;
14994;SDS011;7593;49.006;8.372;2023-04-24T11:19:02;3.65;;;3.33;;
14994;SDS011;7593;49.006;8.372;2023-04-24T11:21:33;4.95;;;3.50;;
14994;SDS011;7593;49.006;8.372;2023-04-24T11:26:53;4.40;;;3.65;;
14994;SDS011;7593;49.006;8.372;2023-04-24T11:29:20;5.03;;;3.67;;
14994;SDS011;7593;49.006;8.372;2023-04-24T11:31:47;4.07;;;3.65;;
14994;SDS011;7593;49.006;8.372;2023-04-24T11:34:16;3.90;;;3.25;;
14994;SDS011;7593;49.006;8.372;2023-04-24T11:36:45;4.97;;;3.33;;
14994;SDS011;7593;49.006;8.372;2023-04-24T11:39:12;4.30;;;3.60;;
14994;SDS011;7593;49.006;8.372;2023-04-24T11:41:39;5.15;;;3.20;;
14994;SDS011;7593;49.006;8.372;2023-04-24T11:44:07;7.32;;;3.78;;
14994;SDS011;7593;49.006;8.372;2023-04-24T11:46:35;4.40;;;3.78;;
14994;SDS011;7593;49.006;8.372;2023-04-24T11:49:03;4.50;;;4.10;;
14994;SDS011;7593;49.006;8.372;2023-04-24T11:51:30;5.93;;;3.97;;
14994;SDS011;7593;49.006;8.372;2023-04-24T11:53:58;5.07;;;3.83;;
14994;SDS011;7593;49.006;8.372;2023-04-24T11:56:25;5.13;;;4.10;;
14994;SDS011;7593;49.006;8.372;2023-04-24T11:58:52;5.25;;;3.50;;
14994;SDS011;7593;49.006;8.372;2023-04-24T12:01:19;4.88;;;3.90;;
14994;SDS011;7593;49.006;8.372;2023-04-24T12:03:47;4.75;;;3.55;;
14994;SDS011;7593;49.006;8.372;2023-04-24T12:06:15;3.75;;;2.95;;
14994;SDS011;7593;49.006;8.372;2023-04-24T12:08:45;3.58;;;2.67;;
14994;SDS011;7593;49.006;8.372;2023-04-24T12:11:14;2.83;;;2.28;;
14994;SDS011;7593;49.006;8.372;2023-04-24T12:13:46;3.70;;;2.65;;
14994;SDS011;7593;49.006;8.372;2023-04-24T12:16:12;3.55;;;2.40;;
14994;SDS011;7593;49.006;8.372;2023-04-24T12:18:43;3.60;;;2.60;;
14994;SDS011;7593;49.006;8.372;2023-04-24T12:21:17;5.97;;;3.10;;
14994;SDS011;7593;49.006;8.372;2023-04-24T12:23:45;2.90;;;2.60;;
14994;SDS011;7593;49.006;8.372;2023-04-24T12:26:14;3.05;;;2.83;;
14994;SDS011;7593;49.006;8.372;2023-04-24T12:28:45;3.97;;;3.10;;
14994;SDS011;7593;49.006;8.372;2023-04-24T12:31:14;3.83;;;2.80;;
14994;SDS011;7593;49.006;8.372;2023-04-24T12:33:41;4.13;;;3.05;;
14994;SDS011;7593;49.006;8.372;2023-04-24T12:36:09;3.97;;;2.67;;
14994;SDS011;7593;49.006;8.372;2023-04-24T12:38:37;3.13;;;2.80;;
14994;SDS011;7593;49.006;8.372;2023-04-24T12:41:06;5.32;;;2.80;;
14994;SDS011;7593;49.006;8.372;2023-04-24T12:43:35;3.50;;;3.20;;
14994;SDS011;7593;49.006;8.372;2023-04-24T12:46:03;5.45;;;3.25;;
14994;SDS011;7593;49.006;8.372;2023-04-24T12:48:30;3.53;;;2.80;;
14994;SDS011;7593;49.006;8.372;2023-04-24T12:50:57;3.78;;;2.70;;
14994;SDS011;7593;49.006;8.372;2023-04-24T12:53:26;3.47;;;2.88;;
14994;SDS011;7593;49.006;8.372;2023-04-24T12:55:56;3.10;;;2.60;;
14994;SDS011;7593;49.006;8.372;2023-04-24T12:58:23;3.58;;;2.58;;
14994;SDS011;7593;49.006;8.372;2023-04-24T13:00:51;4.43;;;2.90;;
14994;SDS011;7593;49.006;8.372;2023-04-24T13:03:18;4.78;;;3.30;;
14994;SDS011;7593;49.006;8.372;2023-04-24T13:05:45;5.50;;;3.22;;
14994;SDS011;7593;49.006;8.372;2023-04-24T13:08:12;3.80;;;2.75;;
14994;SDS011;7593;49.006;8.372;2023-04-24T13:10:39;6.05;;;3.20;;
14994;SDS011;7593;49.006;8.372;2023-04-24T13:13:06;4.43;;;3.00;;
14994;SDS011;7593;49.006;8.372;2023-04-24T13:15:33;3.50;;;3.20;;
14994;SDS011;7593;49.006;8.372;2023-04-24T13:18:01;3.72;;;3.30;;
14994;SDS011;7593;49.006;8.372;2023-04-24T13:20:28;3.17;;;2.78;;
14994;SDS011;7593;49.006;8.372;2023-04-24T13:22:55;4.18;;;2.80;;
14994;SDS011;7593;49.006;8.372;2023-04-24T13:25:22;3.40;;;3.10;;
14994;SDS011;7593;49.006;8.372;2023-04-24T13:27:50;3.53;;;2.90;;
14994;SDS011;7593;49.006;8.372;2023-04-24T13:30:17;4.65;;;3.00;;
14994;SDS011;7593;49.006;8.372;2023-04-24T13:32:43;3.92;;;3.00;;
14994;SDS011;7593;49.006;8.372;2023-04-24T13:35:12;3.90;;;2.75;;
14994;SDS011;7593;49.006;8.372;2023-04-24T13:37:38;2.90;;;2.55;;
14994;SDS011;7593;49.006;8.372;2023-04-24T13:40:06;3.58;;;2.60;;
14994;SDS011;7593;49.006;8.372;2023-04-24T13:42:34;3.83;;;3.00;;
14994;SDS011;7593;49.006;8.372;2023-04-24T13:45:00;5.57;;;3.35;;
14994;SDS011;7593;49.006;8.372;2023-04-24T13:47:28;3.40;;;2.85;;
14994;SDS011;7593;49.006;8.372;2023-04-24T13:49:55;3.50;;;2.92;;
14994;SDS011;7593;49.006;8.372;2023-04-24T13:52:23;3.28;;;2.60;;
14994;SDS011;7593;49.006;8.372;2023-04-24T13:54:50;3.85;;;2.90;;
14994;SDS011;7593;49.006;8.372;2023-04-24T13:57:16;4.47;;;3.00;;
14994;SDS011;7593;49.006;8.372;2023-04-24T13:59:43;3.97;;;2.88;;
14994;SDS011;7593;49.006;8.372;2023-04-24T14:02:11;3.20;;;2.90;;
14994;SDS011;7593;49.006;8.372;2023-04-24T14:04:37;4.90;;;2.92;;
14994;SDS011;7593;49.006;8.372;2023-04-24T14:07:04;4.88;;;2.70;;
14994;SDS011;7593;49.006;8.372;2023-04-24T14:09:32;3.72;;;2.75;;
14994;SDS011;7593;49.006;8.372;2023-04-24T14:11:59;5.63;;;2.60;;
14994;SDS011;7593;49.006;8.372;2023-04-24T14:14:27;3.25;;;2.60;;
14994;SDS011;7593;49.006;8.372;2023-04-24T14:16:54;3.45;;;2.90;;
14994;SDS011;7593;49.006;8.372;2023-04-24T14:19:21;5.80;;;3.65;;
14994;SDS011;7593;49.006;8.372;2023-04-24T14:21:48;4.22;;;3.75;;
14994;SDS011;7593;49.006;8.372;2023-04-24T14:24:15;6.60;;;4.85;;
14994;SDS011;7593;49.006;8.372;2023-04-24T14:26:44;5.68;;;3.38;;
14994;SDS011;7593;49.006;8.372;2023-04-24T14:29:10;5.22;;;3.55;;
14994;SDS011;7593;49.006;8.372;2023-04-24T14:31:37;5.28;;;3.45;;
14994;SDS011;7593;49.006;8.372;2023-04-24T14:34:04;3.83;;;3.10;;
14994;SDS011;7593;49.006;8.372;2023-04-24T14:36:31;3.75;;;3.30;;
14994;SDS011;7593;49.006;8.372;2023-04-24T14:38:58;3.33;;;3.00;;
14994;SDS011;7593;49.006;8.372;2023-04-24T14:41:24;3.28;;;2.42;;
14994;SDS011;7593;49.006;8.372;2023-04-24T14:43:53;4.20;;;2.97;;
14994;SDS011;7593;49.006;8.372;2023-04-24T14:46:21;3.20;;;2.15;;
14994;SDS011;7593;49.006;8.372;2023-04-24T14:48:48;2.92;;;2.10;;
14994;SDS011;7593;49.006;8.372;2023-04-24T14:51:14;2.80;;;1.67;;
14994;SDS011;7593;49.006;8.372;2023-04-24T14:53:41;2.72;;;1.90;;
14994;SDS011;7593;49.006;8.372;2023-04-24T14:56:08;2.88;;;1.80;;
14994;SDS011;7593;49.006;8.372;2023-04-24T14:58:35;2.30;;;2.10;;
14994;SDS011;7593;49.006;8.372;2023-04-24T15:01:03;2.72;;;2.40;;
14994;SDS011;7593;49.006;8.372;2023-04-24T15:03:30;2.15;;;1.80;;
14994;SDS011;7593;49.006;8.372;2023-04-24T15:05:57;3.13;;;2.20;;
14994;SDS011;7593;49.006;8.372;2023-04-24T15:08:24;3.15;;;1.92;;